Time;durP1;ratioP1;P1;durP2;ratioP2;P2;SDS_P1;SDS_P2;PMS_P1;PMS_P2;Temp;Humidity;BMP_temperature;BMP_pressure;BME280_temperature;BME280_humidity;BME280_pressure;Samples;Min_cycle;Max_cycle;Signal;HPM_P1;HPM_P2
2023/04/30 00:01:54;;;;;;;12.35;7.30;;;11.60;99.90;;;;;;7559264;19;20014;-70
2023/04/30 00:04:26;;;;;;;13.52;6.63;;;11.60;99.90;;;;;;7575328;19;20026;-72
2023/04/30 00:06:59;;;;;;;14.40;7.97;;;11.60;99.90;;;;;;7574145;19;22120;-71
2023/04/30 00:09:32;;;;;;;11.13;7.30;;;11.60;99.90;;;;;;7590269;19;20014;-71
2023/04/30 00:12:04;;;;;;;13.63;8.50;;;11.50;99.90;;;;;;7590161;19;20029;-70
2023/04/30 00:14:37;;;;;;;13.82;7.53;;;11.50;99.90;;;;;;7567617;19;20031;-70
2023/04/30 00:17:09;;;;;;;13.07;7.57;;;11.50;99.90;;;;;;7566942;19;20077;-70
2023/04/30 00:19:42;;;;;;;11.32;8.10;;;11.50;99.90;;;;;;7583422;19;20029;-70
2023/04/30 00:22:14;;;;;;;13.35;8.05;;;11.50;99.90;;;;;;7581406;19;20022;-71
2023/04/30 00:24:47;;;;;;;12.25;7.53;;;11.40;99.90;;;;;;7577418;19;20007;-70
2023/04/30 00:27:19;;;;;;;11.98;7.45;;;11.40;99.90;;;;;;7578469;19;20081;-70
2023/04/30 00:29:51;;;;;;;14.25;7.57;;;11.40;99.90;;;;;;7578556;19;20363;-70
2023/04/30 00:32:23;;;;;;;13.48;7.70;;;11.40;99.90;;;;;;7580438;19;20324;-71
2023/04/30 00:34:56;;;;;;;12.85;7.93;;;11.40;99.90;;;;;;7574426;19;20030;-71
2023/04/30 00:37:28;;;;;;;12.23;7.45;;;11.50;99.90;;;;;;7578800;19;20030;-70
2023/04/30 00:40:01;;;;;;;11.70;7.53;;;11.50;99.90;;;;;;7588019;19;20018;-70
2023/04/30 00:42:34;;;;;;;13.48;7.80;;;11.40;99.90;;;;;;7571147;19;20517;-70
2023/04/30 00:45:07;;;;;;;12.32;7.90;;;11.40;99.90;;;;;;7579884;19;20098;-70
2023/04/30 00:47:40;;;;;;;13.90;8.15;;;11.40;99.90;;;;;;7591914;19;20014;-70
2023/04/30 00:50:14;;;;;;;12.85;7.68;;;11.40;99.90;;;;;;7580329;19;20043;-69
2023/04/30 00:52:47;;;;;;;12.63;7.50;;;11.40;99.90;;;;;;7568652;19;20101;-70
2023/04/30 00:55:20;;;;;;;13.23;8.13;;;11.40;99.90;;;;;;7574049;19;20007;-70
2023/04/30 00:57:53;;;;;;;11.30;7.50;;;11.30;99.90;;;;;;7557279;19;20015;-70
2023/04/30 01:00:26;;;;;;;12.02;7.75;;;11.30;99.90;;;;;;7584283;19;20287;-70
2023/04/30 01:02:59;;;;;;;12.43;7.57;;;11.30;99.90;;;;;;7597788;19;20484;-72
2023/04/30 01:05:32;;;;;;;11.88;7.65;;;11.30;99.90;;;;;;7598578;19;20025;-70
2023/04/30 01:08:04;;;;;;;11.40;7.85;;;11.30;99.90;;;;;;7597089;19;20074;-71
2023/04/30 01:11:07;;;;;;;12.38;7.90;;;11.30;99.90;;;;;;7598172;19;20019;-70
2023/04/30 01:13:57;;;;;;;13.07;8.10;;;11.20;99.90;;;;;;7600161;19;20018;-71
2023/04/30 01:16:40;;;;;;;13.55;8.15;;;11.20;99.90;;;;;;7598749;19;20022;-70
2023/04/30 01:19:18;;;;;;;12.52;7.68;;;11.30;99.90;;;;;;7598170;19;20150;-71
2023/04/30 01:21:52;;;;;;;10.90;7.38;;;11.20;99.90;;;;;;7599221;19;20494;-69
2023/04/30 01:24:37;;;;;;;14.95;8.25;;;11.30;99.90;;;;;;7600637;19;20576;-70
2023/04/30 01:27:29;;;;;;;12.88;7.28;;;11.20;99.90;;;;;;7603222;19;20015;-69
2023/04/30 01:30:03;;;;;;;11.73;7.75;;;11.30;99.90;;;;;;7596073;19;20015;-69
2023/04/30 01:32:36;;;;;;;10.82;7.72;;;11.20;99.90;;;;;;7608711;19;20019;-70
2023/04/30 01:35:08;;;;;;;11.65;8.13;;;11.20;99.90;;;;;;7598335;19;20118;-71
2023/04/30 01:38:18;;;;;;;11.30;7.90;;;11.10;99.90;;;;;;7607751;19;20018;-68
2023/04/30 01:41:12;;;;;;;13.13;9.02;;;11.20;99.90;;;;;;7603787;19;20017;-69
2023/04/30 01:44:00;;;;;;;11.57;7.43;;;11.20;99.90;;;;;;7607951;19;20104;-69
2023/04/30 01:46:33;;;;;;;10.82;7.18;;;11.20;99.90;;;;;;7610771;19;20014;-70
2023/04/30 01:49:18;;;;;;;12.60;7.93;;;11.10;99.90;;;;;;7604077;19;20367;-70
2023/04/30 01:52:01;;;;;;;15.00;8.20;;;11.10;99.90;;;;;;7603669;19;20041;-69
2023/04/30 01:54:58;;;;;;;12.35;8.07;;;11.10;99.90;;;;;;7607912;19;20025;-71
2023/04/30 01:57:40;;;;;;;11.70;8.07;;;11.10;99.90;;;;;;7599171;19;20027;-69
2023/04/30 02:00:13;;;;;;;15.50;8.07;;;11.10;99.90;;;;;;7589492;19;20015;-69
2023/04/30 02:02:46;;;;;;;;;;;11.10;99.90;;;;;;7607805;19;20018;-70
2023/04/30 02:05:18;;;;;;;18.88;8.20;;;11.10;99.90;;;;;;7603196;19;19914;-69
2023/04/30 02:07:51;;;;;;;12.82;7.90;;;11.10;99.90;;;;;;7598186;19;20022;-69
2023/04/30 02:10:25;;;;;;;11.57;8.13;;;11.00;99.90;;;;;;7595414;19;20026;-69
2023/04/30 02:12:57;;;;;;;13.30;8.57;;;11.00;99.90;;;;;;7597161;19;20344;-69
2023/04/30 02:15:30;;;;;;;13.18;8.18;;;11.00;99.90;;;;;;7598324;19;20015;-69
2023/04/30 02:18:03;;;;;;;12.02;8.05;;;11.00;99.90;;;;;;7602341;19;20022;-70
2023/04/30 02:20:35;;;;;;;13.27;8.60;;;10.90;99.90;;;;;;7608483;19;20022;-70
2023/04/30 02:23:08;;;;;;;13.18;8.30;;;11.00;99.90;;;;;;7595746;19;20011;-70
2023/04/30 02:25:40;;;;;;;13.73;9.07;;;10.90;99.90;;;;;;7607230;19;20023;-69
2023/04/30 02:28:13;;;;;;;12.00;7.63;;;10.90;99.90;;;;;;7604191;19;20042;-69
2023/04/30 02:30:45;;;;;;;17.95;9.50;;;10.90;99.90;;;;;;7606344;19;20043;-69
2023/04/30 02:33:17;;;;;;;15.82;9.25;;;10.90;99.90;;;;;;7606125;19;20006;-69
2023/04/30 02:35:49;;;;;;;16.17;8.90;;;10.80;99.90;;;;;;7605382;19;20020;-69
2023/04/30 02:38:22;;;;;;;15.97;8.93;;;10.90;99.90;;;;;;7603989;19;20015;-68
2023/04/30 02:40:55;;;;;;;13.50;9.20;;;10.80;99.90;;;;;;7604916;19;20025;-70
2023/04/30 02:43:27;;;;;;;16.33;9.32;;;10.90;99.90;;;;;;7606876;19;20225;-71
2023/04/30 02:45:59;;;;;;;16.00;9.88;;;10.80;99.90;;;;;;7607205;19;20011;-69
2023/04/30 02:48:32;;;;;;;16.25;9.35;;;10.80;99.90;;;;;;7609099;19;20122;-70
2023/04/30 02:51:04;;;;;;;13.38;9.32;;;10.80;99.90;;;;;;7606400;19;20018;-69
2023/04/30 02:53:36;;;;;;;18.30;9.57;;;10.80;99.90;;;;;;7600228;19;20093;-71
2023/04/30 02:56:08;;;;;;;19.88;10.20;;;10.80;99.90;;;;;;7604296;19;20030;-70
2023/04/30 02:58:41;;;;;;;15.32;8.90;;;10.80;99.90;;;;;;7601778;19;20029;-71
2023/04/30 03:01:13;;;;;;;15.13;9.82;;;10.70;99.90;;;;;;7603286;19;20026;-69
2023/04/30 03:03:45;;;;;;;17.10;10.23;;;10.80;99.90;;;;;;7607811;19;20895;-69
2023/04/30 03:06:18;;;;;;;14.88;9.73;;;10.70;99.90;;;;;;7606019;19;20018;-70
2023/04/30 03:08:50;;;;;;;16.70;10.18;;;10.70;99.90;;;;;;7591181;19;20023;-69
2023/04/30 03:11:23;;;;;;;18.95;10.18;;;10.60;99.90;;;;;;7602330;19;20093;-70
2023/04/30 03:13:56;;;;;;;14.52;9.85;;;10.70;99.90;;;;;;7606540;19;20647;-71
2023/04/30 03:16:29;;;;;;;16.63;10.68;;;10.70;99.90;;;;;;7605626;19;20484;-70
2023/04/30 03:19:02;;;;;;;15.48;10.65;;;10.70;99.90;;;;;;7605285;19;20010;-70
2023/04/30 03:21:34;;;;;;;17.30;10.70;;;10.70;99.90;;;;;;7600242;19;20384;-69
2023/04/30 03:25:03;;;;;;;16.67;11.07;;;10.70;99.90;;;;;;7602138;19;20155;-70
2023/04/30 03:27:36;;;;;;;15.05;10.05;;;10.60;99.90;;;;;;7566333;19;20133;-70
2023/04/30 03:30:08;;;;;;;16.25;10.32;;;10.60;99.90;;;;;;7588271;19;20049;-70
2023/04/30 03:32:41;;;;;;;17.37;11.20;;;10.60;99.90;;;;;;7587155;19;20021;-70
2023/04/30 03:35:13;;;;;;;19.00;11.50;;;10.60;99.90;;;;;;7589741;19;20029;-69
2023/04/30 03:37:46;;;;;;;16.85;10.65;;;10.60;99.90;;;;;;7594110;19;20022;-69
2023/04/30 03:40:18;;;;;;;18.98;10.80;;;10.60;99.90;;;;;;7582859;19;20015;-69
2023/04/30 03:42:51;;;;;;;15.65;10.93;;;10.60;99.90;;;;;;7604700;19;20025;-71
2023/04/30 03:45:24;;;;;;;17.65;10.95;;;10.50;99.90;;;;;;7607067;19;20018;-71
2023/04/30 03:47:56;;;;;;;15.30;11.02;;;10.50;99.90;;;;;;7600151;19;20039;-70
2023/04/30 03:50:29;;;;;;;20.35;10.73;;;10.50;99.90;;;;;;7602787;19;20018;-70
2023/04/30 03:53:01;;;;;;;18.23;10.80;;;10.50;99.90;;;;;;7599998;19;20363;-71
2023/04/30 03:55:33;;;;;;;16.45;11.10;;;10.50;99.90;;;;;;7600914;19;20111;-71
2023/04/30 03:58:05;;;;;;;19.42;11.68;;;10.40;99.90;;;;;;7596257;19;22250;-70
2023/04/30 04:00:40;;;;;;;16.67;11.82;;;10.40;99.90;;;;;;7601223;19;20010;-70
2023/04/30 04:03:16;;;;;;;20.17;10.95;;;10.40;99.90;;;;;;7599234;19;20022;-69
2023/04/30 04:05:49;;;;;;;18.10;11.30;;;10.30;99.90;;;;;;7597020;19;20022;-68
2023/04/30 04:08:22;;;;;;;19.35;11.30;;;10.30;99.90;;;;;;7600701;19;20026;-70
2023/04/30 04:10:54;;;;;;;17.80;11.82;;;10.20;99.90;;;;;;7600793;19;20023;-69
2023/04/30 04:13:26;;;;;;;19.08;11.60;;;10.10;99.90;;;;;;7602786;19;20029;-71
2023/04/30 04:15:59;;;;;;;18.65;11.73;;;10.10;99.90;;;;;;7596568;19;20041;-69
2023/04/30 04:18:31;;;;;;;19.40;11.20;;;10.10;99.90;;;;;;7603219;19;20011;-70
2023/04/30 04:21:03;;;;;;;21.35;11.73;;;10.10;99.90;;;;;;7596258;19;20097;-71
2023/04/30 04:23:36;;;;;;;18.13;11.85;;;10.10;99.90;;;;;;7604993;19;20029;-70
2023/04/30 04:26:09;;;;;;;17.85;11.63;;;10.20;99.90;;;;;;7593141;19;20405;-71
2023/04/30 04:28:41;;;;;;;18.88;11.88;;;10.30;99.90;;;;;;7603867;19;20022;-69
2023/04/30 04:31:14;;;;;;;19.02;11.93;;;10.30;99.90;;;;;;7592640;19;20037;-71
2023/04/30 04:33:47;;;;;;;19.92;12.65;;;10.30;99.90;;;;;;7604437;19;20022;-70
2023/04/30 04:36:19;;;;;;;20.17;11.88;;;10.20;99.90;;;;;;7592202;19;20041;-71
2023/04/30 04:38:51;;;;;;;16.35;11.35;;;10.30;99.90;;;;;;7601937;19;20078;-69
2023/04/30 04:41:25;;;;;;;19.60;12.47;;;10.30;99.90;;;;;;7594724;19;20014;-70
2023/04/30 04:44:02;;;;;;;21.38;12.48;;;10.30;99.90;;;;;;7599835;19;20088;-70
2023/04/30 04:46:37;;;;;;;18.95;11.93;;;10.30;99.90;;;;;;7600547;19;20018;-71
2023/04/30 04:49:10;;;;;;;20.15;12.82;;;10.30;99.90;;;;;;7595018;19;20010;-69
2023/04/30 04:51:42;;;;;;;18.67;11.55;;;10.30;99.90;;;;;;7606452;19;20039;-70
2023/04/30 04:54:14;;;;;;;21.90;12.70;;;10.40;99.90;;;;;;7597109;19;20021;-68
2023/04/30 04:56:47;;;;;;;21.80;12.63;;;10.40;99.90;;;;;;7605254;19;20392;-70
2023/04/30 04:59:19;;;;;;;19.83;12.10;;;10.40;99.90;;;;;;7596490;19;20050;-69
2023/04/30 05:01:53;;;;;;;20.13;11.70;;;10.40;99.90;;;;;;7610238;19;20279;-69
2023/04/30 05:04:26;;;;;;;18.17;12.07;;;10.40;99.90;;;;;;7605860;19;20015;-68
2023/04/30 05:06:59;;;;;;;19.95;12.38;;;10.40;99.90;;;;;;7612523;19;20026;-70
2023/04/30 05:09:31;;;;;;;18.02;11.60;;;10.40;99.90;;;;;;7602389;19;20022;-69
2023/04/30 05:12:04;;;;;;;16.57;11.33;;;10.50;99.90;;;;;;7607998;19;20017;-70
2023/04/30 05:14:37;;;;;;;18.35;12.27;;;10.50;99.90;;;;;;7597941;19;20014;-71
2023/04/30 05:17:09;;;;;;;18.73;12.43;;;10.50;99.90;;;;;;7608986;19;20014;-69
2023/04/30 05:19:42;;;;;;;20.70;11.95;;;10.50;99.90;;;;;;7608644;19;20018;-71
2023/04/30 05:22:14;;;;;;;20.63;12.93;;;10.60;99.90;;;;;;7608770;19;20025;-69
2023/04/30 05:24:47;;;;;;;20.00;12.80;;;10.60;99.90;;;;;;7605736;19;20026;-70
2023/04/30 05:27:19;;;;;;;21.13;11.77;;;10.60;99.90;;;;;;7603064;19;20401;-70
2023/04/30 05:29:52;;;;;;;18.15;12.60;;;10.70;99.90;;;;;;7607703;19;20021;-72
2023/04/30 05:32:26;;;;;;;18.92;12.18;;;10.70;99.90;;;;;;7606400;19;20019;-70
2023/04/30 05:34:58;;;;;;;20.45;13.10;;;10.70;99.90;;;;;;7606859;19;20408;-70
2023/04/30 05:37:31;;;;;;;19.02;12.35;;;10.70;99.90;;;;;;7602866;19;20048;-70
2023/04/30 05:40:05;;;;;;;19.10;12.23;;;10.80;99.90;;;;;;7604393;19;20021;-68
2023/04/30 05:42:39;;;;;;;16.98;11.27;;;10.80;99.90;;;;;;7603812;19;20048;-69
2023/04/30 05:45:14;;;;;;;18.27;11.95;;;10.80;99.90;;;;;;7606869;19;20015;-70
2023/04/30 05:47:47;;;;;;;18.48;12.05;;;10.90;99.90;;;;;;7607029;19;20521;-71
2023/04/30 05:50:19;;;;;;;21.02;12.90;;;10.90;99.90;;;;;;7604414;19;20014;-71
2023/04/30 05:52:51;;;;;;;16.55;11.38;;;10.80;99.90;;;;;;7603340;19;20028;-70
2023/04/30 05:55:23;;;;;;;16.67;11.52;;;10.80;99.90;;;;;;7613711;19;20656;-70
2023/04/30 05:57:55;;;;;;;19.80;11.93;;;10.80;99.90;;;;;;7623860;19;20031;-69
2023/04/30 06:00:27;;;;;;;17.52;12.15;;;10.80;99.90;;;;;;7607481;19;20332;-70
2023/04/30 06:03:00;;;;;;;18.35;12.00;;;10.90;99.90;;;;;;7606329;19;20014;-70
2023/04/30 06:05:32;;;;;;;18.55;11.57;;;10.80;99.90;;;;;;7602826;19;20873;-72
2023/04/30 06:08:05;;;;;;;16.02;11.23;;;10.90;99.90;;;;;;7611826;19;20026;-71
2023/04/30 06:10:37;;;;;;;17.30;11.52;;;10.90;99.90;;;;;;7584866;19;20672;-69
2023/04/30 06:13:10;;;;;;;15.50;11.15;;;10.90;99.90;;;;;;7592314;19;20866;-70
2023/04/30 06:15:42;;;;;;;19.88;11.82;;;11.00;99.90;;;;;;7588256;19;20029;-69
2023/04/30 06:18:15;;;;;;;17.55;12.05;;;11.00;99.90;;;;;;7602899;19;20023;-70
2023/04/30 06:20:48;;;;;;;15.73;11.13;;;11.00;99.90;;;;;;7587609;19;20537;-69
2023/04/30 06:23:20;;;;;;;15.00;10.82;;;11.10;99.90;;;;;;7592960;19;20034;-70
2023/04/30 06:25:52;;;;;;;16.98;10.93;;;11.20;99.90;;;;;;7597658;19;20022;-71
2023/04/30 06:28:24;;;;;;;15.15;10.40;;;11.20;99.90;;;;;;7595080;19;20018;-69
2023/04/30 06:30:56;;;;;;;15.00;10.45;;;11.20;99.90;;;;;;7586056;19;20022;-72
2023/04/30 06:33:29;;;;;;;13.35;9.07;;;11.30;99.90;;;;;;7590057;19;20056;-71
2023/04/30 06:36:01;;;;;;;15.10;9.77;;;11.40;99.90;;;;;;7606215;19;20038;-71
2023/04/30 06:38:33;;;;;;;12.07;9.55;;;11.50;99.90;;;;;;7599634;19;20018;-70
2023/04/30 06:41:05;;;;;;;12.40;8.98;;;11.60;99.90;;;;;;7573471;19;20660;-69
2023/04/30 06:43:37;;;;;;;14.38;9.35;;;11.70;99.90;;;;;;7597334;19;20021;-69
2023/04/30 06:46:10;;;;;;;11.85;8.82;;;11.70;99.90;;;;;;7601458;19;20026;-69
2023/04/30 06:48:42;;;;;;;15.07;9.05;;;11.70;99.90;;;;;;7602143;19;20050;-71
2023/04/30 06:51:14;;;;;;;12.75;8.30;;;11.80;99.90;;;;;;7604585;19;20062;-70
2023/04/30 06:53:47;;;;;;;14.77;8.52;;;11.90;99.90;;;;;;7607055;19;20838;-72
2023/04/30 06:56:20;;;;;;;11.10;7.88;;;11.90;99.90;;;;;;7598204;19;20011;-70
2023/04/30 06:58:53;;;;;;;10.60;7.82;;;12.00;99.90;;;;;;7606500;19;20023;-72
2023/04/30 07:01:26;;;;;;;9.80;7.60;;;12.10;99.90;;;;;;7593793;19;20470;-69
2023/04/30 07:03:58;;;;;;;12.18;8.10;;;12.10;99.90;;;;;;7589366;19;20397;-72
2023/04/30 07:06:31;;;;;;;10.43;7.60;;;12.20;99.90;;;;;;7595915;19;20044;-70
2023/04/30 07:09:03;;;;;;;10.95;7.65;;;12.30;99.90;;;;;;7590752;19;20720;-69
2023/04/30 07:11:35;;;;;;;14.25;7.93;;;12.30;99.90;;;;;;7573139;19;20688;-71
2023/04/30 07:14:08;;;;;;;13.60;8.13;;;12.40;99.90;;;;;;7589937;19;20011;-69
2023/04/30 07:16:40;;;;;;;8.32;6.85;;;12.40;99.90;;;;;;7580862;19;20022;-70
2023/04/30 07:19:12;;;;;;;11.57;8.20;;;12.40;99.90;;;;;;7601547;19;21487;-70
2023/04/30 07:21:45;;;;;;;9.55;7.65;;;12.50;99.90;;;;;;7597145;19;20060;-71
2023/04/30 07:24:17;;;;;;;13.15;7.50;;;12.60;99.90;;;;;;7602156;19;20121;-71
2023/04/30 07:26:49;;;;;;;9.77;7.70;;;12.70;99.90;;;;;;7591067;19;20038;-71
2023/04/30 07:29:21;;;;;;;14.65;8.40;;;12.70;99.90;;;;;;7602779;19;20018;-70
2023/04/30 07:31:55;;;;;;;9.65;7.20;;;12.80;99.90;;;;;;7595952;19;20033;-70
2023/04/30 07:34:27;;;;;;;;;;;12.80;99.90;;;;;;7600564;19;20026;-70
2023/04/30 07:37:00;;;;;;;10.73;7.10;;;12.90;99.90;;;;;;7597655;19;19946;-70
2023/04/30 07:39:32;;;;;;;9.77;7.53;;;12.90;99.90;;;;;;7612806;19;20015;-70
2023/04/30 07:42:05;;;;;;;10.15;7.03;;;12.90;99.90;;;;;;7596633;19;20035;-69
2023/04/30 07:44:38;;;;;;;10.63;8.18;;;12.90;99.90;;;;;;7601567;19;20048;-70
2023/04/30 07:47:10;;;;;;;9.82;7.43;;;13.00;99.90;;;;;;7599837;19;20024;-71
2023/04/30 07:49:42;;;;;;;7.70;6.37;;;13.10;99.90;;;;;;7599324;19;20887;-71
2023/04/30 07:52:14;;;;;;;9.48;7.40;;;13.20;99.90;;;;;;7599915;19;20359;-71
2023/04/30 07:54:47;;;;;;;12.95;7.88;;;13.20;99.90;;;;;;7601122;19;20025;-71
2023/04/30 07:57:19;;;;;;;8.85;7.13;;;13.40;99.90;;;;;;7598855;19;20015;-71
2023/04/30 07:59:53;;;;;;;8.05;6.63;;;13.40;99.90;;;;;;7603950;19;20022;-69
2023/04/30 08:02:26;;;;;;;8.30;6.05;;;13.50;99.90;;;;;;7593676;19;20637;-68
2023/04/30 08:04:58;;;;;;;9.55;6.70;;;13.40;99.90;;;;;;7602826;19;20029;-69
2023/04/30 08:07:30;;;;;;;9.73;7.05;;;13.40;99.90;;;;;;7597834;19;20011;-70
2023/04/30 08:10:03;;;;;;;7.45;6.13;;;13.30;99.90;;;;;;7601131;19;20534;-69
2023/04/30 08:12:36;;;;;;;7.63;6.17;;;13.50;99.90;;;;;;7598637;19;20026;-69
2023/04/30 08:15:08;;;;;;;9.38;7.05;;;13.90;99.90;;;;;;7595381;19;20014;-69
2023/04/30 08:17:40;;;;;;;9.32;6.60;;;14.00;99.90;;;;;;7599405;19;20011;-69
2023/04/30 08:20:13;;;;;;;9.70;6.30;;;14.20;99.90;;;;;;7595309;19;20018;-69
2023/04/30 08:22:45;;;;;;;9.18;7.05;;;14.30;99.40;;;;;;7599208;19;20066;-70
2023/04/30 08:25:17;;;;;;;9.82;7.03;;;14.40;99.90;;;;;;7598897;19;20023;-70
2023/04/30 08:27:50;;;;;;;8.25;6.97;;;14.50;99.30;;;;;;7600240;19;20109;-70
2023/04/30 08:30:22;;;;;;;8.68;7.25;;;14.60;99.50;;;;;;7604818;19;20023;-69
2023/04/30 08:32:55;;;;;;;9.68;8.30;;;14.80;97.00;;;;;;7604920;19;21079;-70
2023/04/30 08:35:28;;;;;;;12.45;7.82;;;14.80;96.20;;;;;;7596812;19;20015;-69
2023/04/30 08:38:01;;;;;;;7.35;6.32;;;14.80;96.10;;;;;;7600241;19;20018;-69
2023/04/30 08:40:35;;;;;;;9.18;7.63;;;14.80;95.80;;;;;;7590735;19;20116;-68
2023/04/30 08:43:23;;;;;;;11.02;8.50;;;14.80;94.60;;;;;;7603639;19;20022;-70
2023/04/30 08:45:56;;;;;;;10.80;8.48;;;14.70;95.50;;;;;;7601575;19;20007;-69
2023/04/30 08:48:30;;;;;;;13.90;9.20;;;14.70;96.00;;;;;;7597598;19;20022;-70
2023/04/30 08:51:03;;;;;;;;;;;14.70;96.10;;;;;;7603904;19;20010;-68
2023/04/30 08:53:39;;;;;;;9.82;7.95;;;14.50;96.10;;;;;;7594712;19;19922;-69
2023/04/30 08:56:11;;;;;;;10.07;8.27;;;14.40;96.60;;;;;;7599804;19;20010;-70
2023/04/30 08:58:43;;;;;;;11.02;8.35;;;14.40;97.50;;;;;;7595273;19;20040;-69
2023/04/30 09:01:16;;;;;;;8.18;7.32;;;14.50;98.00;;;;;;7597264;19;20182;-71
2023/04/30 09:03:49;;;;;;;8.63;6.93;;;14.50;97.90;;;;;;7594670;19;20022;-68
2023/04/30 09:06:21;;;;;;;9.87;7.63;;;14.70;99.30;;;;;;7602077;19;20034;-70
2023/04/30 09:08:54;;;;;;;10.45;8.45;;;14.80;97.10;;;;;;7595362;19;20287;-69
2023/04/30 09:11:29;;;;;;;10.38;8.15;;;14.70;95.90;;;;;;7595122;19;20054;-70
2023/04/30 09:14:02;;;;;;;9.38;7.45;;;14.60;96.20;;;;;;7595192;19;20014;-71
2023/04/30 09:16:48;;;;;;;7.80;6.50;;;14.50;95.40;;;;;;7598213;19;20044;-69
2023/04/30 09:19:30;;;;;;;8.50;6.65;;;14.60;95.70;;;;;;7601238;19;20019;-70
2023/04/30 09:22:38;;;;;;;9.23;6.93;;;14.60;95.30;;;;;;7597523;19;20554;-70
2023/04/30 09:25:10;;;;;;;8.73;6.97;;;14.50;95.60;;;;;;7593652;19;20109;-69
2023/04/30 09:27:44;;;;;;;7.05;5.97;;;14.50;96.00;;;;;;7594372;19;20021;-70
2023/04/30 09:30:29;;;;;;;;;;;14.50;95.60;;;;;;7598713;19;20022;-70
2023/04/30 09:33:02;;;;;;;8.40;5.95;;;14.50;96.10;;;;;;7595636;19;19954;-70
2023/04/30 09:35:40;;;;;;;7.45;6.38;;;14.40;95.00;;;;;;7592174;19;20048;-69
2023/04/30 09:38:30;;;;;;;10.13;5.68;;;14.40;94.40;;;;;;7596129;19;20407;-70
2023/04/30 09:41:02;;;;;;;8.20;6.07;;;14.50;94.80;;;;;;7593712;19;21086;-70
2023/04/30 09:43:43;;;;;;;9.13;6.53;;;14.60;95.30;;;;;;7599677;19;20019;-70
2023/04/30 09:46:19;;;;;;;9.23;6.07;;;14.60;94.70;;;;;;7603112;19;20020;-71
2023/04/30 09:49:02;;;;;;;7.82;7.03;;;14.50;94.40;;;;;;7607829;19;20022;-70
2023/04/30 09:51:52;;;;;;;6.60;5.90;;;14.60;95.20;;;;;;7600302;19;20022;-69
2023/04/30 09:54:31;;;;;;;8.30;5.57;;;14.60;93.10;;;;;;7607410;19;20010;-71
2023/04/30 09:57:03;;;;;;;8.70;7.07;;;14.70;92.50;;;;;;7600904;19;20455;-72
2023/04/30 09:59:38;;;;;;;7.00;6.18;;;14.70;93.10;;;;;;7602898;19;20026;-71
2023/04/30 10:02:14;;;;;;;7.50;6.43;;;14.80;92.90;;;;;;7608665;19;20019;-72
2023/04/30 10:04:52;;;;;;;9.10;7.30;;;14.80;92.40;;;;;;7601409;19;20695;-71
2023/04/30 10:07:37;;;;;;;7.72;6.90;;;14.90;92.30;;;;;;7605282;19;20525;-70
2023/04/30 10:10:10;;;;;;;7.53;6.65;;;14.80;92.40;;;;;;7598247;19;20022;-71
2023/04/30 10:12:50;;;;;;;8.18;6.50;;;14.80;92.70;;;;;;7605582;19;20022;-70
2023/04/30 10:15:31;;;;;;;7.10;6.40;;;14.80;92.70;;;;;;7607386;19;20018;-71
2023/04/30 10:18:07;;;;;;;8.45;6.90;;;14.90;92.90;;;;;;7602915;19;20105;-69
2023/04/30 10:20:40;;;;;;;8.43;7.13;;;14.90;92.20;;;;;;7603017;19;20051;-70
2023/04/30 10:23:13;;;;;;;7.70;6.90;;;14.80;91.80;;;;;;7605137;19;20015;-70
2023/04/30 10:25:46;;;;;;;9.40;7.15;;;14.80;92.80;;;;;;7602726;19;20360;-70
2023/04/30 10:28:18;;;;;;;9.63;7.63;;;14.80;92.80;;;;;;7604027;19;20026;-69
2023/04/30 10:30:51;;;;;;;9.25;7.70;;;14.70;92.80;;;;;;7602839;19;20121;-71
2023/04/30 10:33:57;;;;;;;10.07;7.22;;;14.70;93.30;;;;;;7613327;19;20661;-70
2023/04/30 10:37:00;;;;;;;8.02;6.82;;;14.70;92.20;;;;;;7599428;19;20018;-70
2023/04/30 10:39:35;;;;;;;9.05;7.90;;;14.80;91.00;;;;;;7601243;19;20046;-74
2023/04/30 10:42:09;;;;;;;8.35;6.82;;;14.90;91.50;;;;;;7608162;19;20022;-74
2023/04/30 10:44:41;;;;;;;11.65;9.30;;;15.20;91.90;;;;;;7603053;19;20021;-73
2023/04/30 10:47:15;;;;;;;10.60;8.25;;;15.20;91.10;;;;;;7610832;19;20542;-74
2023/04/30 10:49:51;;;;;;;9.70;8.02;;;15.30;91.20;;;;;;7610976;19;21650;-74
2023/04/30 10:52:28;;;;;;;9.77;7.75;;;15.50;90.40;;;;;;7607029;19;20056;-74
2023/04/30 10:55:06;;;;;;;8.55;7.13;;;15.70;89.80;;;;;;7608759;19;20447;-74
2023/04/30 10:57:42;;;;;;;11.52;7.70;;;15.80;90.10;;;;;;7609803;19;20021;-73
2023/04/30 11:00:19;;;;;;;7.97;6.68;;;16.10;88.50;;;;;;7609068;19;20026;-73
2023/04/30 11:02:55;;;;;;;9.57;6.60;;;16.60;87.90;;;;;;7604720;19;20023;-73
2023/04/30 11:05:37;;;;;;;8.18;5.97;;;17.00;83.60;;;;;;7615190;19;20649;-74
2023/04/30 11:08:12;;;;;;;10.68;6.07;;;17.10;82.70;;;;;;7612137;19;20022;-73
2023/04/30 11:11:07;;;;;;;6.75;5.63;;;16.90;80.90;;;;;;7604977;19;20026;-73
2023/04/30 11:13:43;;;;;;;7.93;5.97;;;16.40;82.10;;;;;;7607080;19;20014;-73
2023/04/30 11:16:15;;;;;;;6.45;5.43;;;16.40;83.00;;;;;;7609309;19;20022;-73
2023/04/30 11:18:51;;;;;;;6.13;5.25;;;16.70;82.80;;;;;;7607766;19;20018;-73
2023/04/30 11:21:24;;;;;;;5.78;5.28;;;16.80;80.70;;;;;;7612246;19;20366;-73
2023/04/30 11:24:03;;;;;;;6.40;4.95;;;17.00;81.70;;;;;;7609007;19;20018;-73
2023/04/30 11:27:04;;;;;;;5.82;4.70;;;17.00;79.90;;;;;;7607265;19;20874;-73
2023/04/30 11:29:38;;;;;;;5.65;4.82;;;17.00;79.10;;;;;;7607043;19;20027;-69
2023/04/30 11:32:12;;;;;;;5.45;4.82;;;17.00;79.20;;;;;;7602746;19;20029;-70
2023/04/30 11:34:44;;;;;;;6.93;5.03;;;17.00;79.80;;;;;;7602057;19;20014;-69
2023/04/30 11:37:29;;;;;;;5.47;4.90;;;16.80;77.30;;;;;;7604294;19;20626;-70
2023/04/30 11:40:03;;;;;;;6.75;4.10;;;16.60;78.40;;;;;;7596440;19;20616;-69
2023/04/30 11:42:38;;;;;;;6.13;4.93;;;16.60;78.40;;;;;;7601693;19;20015;-68
2023/04/30 11:45:12;;;;;;;6.95;5.25;;;16.40;78.20;;;;;;7603773;19;20039;-70
2023/04/30 11:47:53;;;;;;;5.75;4.55;;;16.20;79.10;;;;;;7602695;19;20022;-70
2023/04/30 11:50:32;;;;;;;8.38;5.45;;;16.00;79.60;;;;;;7597167;19;20011;-70
2023/04/30 11:53:04;;;;;;;7.07;5.38;;;15.90;80.80;;;;;;7598590;19;20054;-70
2023/04/30 11:55:40;;;;;;;6.10;5.13;;;15.70;81.50;;;;;;7602265;19;20045;-69
2023/04/30 11:58:12;;;;;;;7.47;5.00;;;15.60;81.70;;;;;;7597738;19;20022;-71
2023/04/30 12:00:45;;;;;;;9.10;5.00;;;15.70;81.40;;;;;;7606036;19;20858;-71
2023/04/30 12:03:17;;;;;;;7.22;5.30;;;15.70;82.40;;;;;;7602973;19;20402;-69
2023/04/30 12:05:50;;;;;;;5.15;4.57;;;15.70;80.80;;;;;;7601961;19;20029;-70
2023/04/30 12:08:23;;;;;;;5.53;4.57;;;15.70;81.70;;;;;;7597929;19;20027;-71
2023/04/30 12:10:55;;;;;;;6.50;4.68;;;15.70;81.60;;;;;;7598142;19;20023;-71
2023/04/30 12:13:30;;;;;;;11.25;4.75;;;15.50;81.10;;;;;;7601714;19;20058;-70
2023/04/30 12:16:02;;;;;;;5.25;4.40;;;15.40;81.00;;;;;;7574769;19;20040;-71
2023/04/30 12:18:35;;;;;;;6.65;4.75;;;15.40;81.80;;;;;;7585856;19;20712;-70
2023/04/30 12:21:08;;;;;;;7.87;4.73;;;15.40;81.70;;;;;;7599297;19;20024;-70
2023/04/30 12:23:41;;;;;;;6.68;4.18;;;15.40;81.60;;;;;;7591091;19;20680;-71
2023/04/30 12:26:13;;;;;;;9.50;4.77;;;15.50;81.20;;;;;;7597739;19;20026;-69
2023/04/30 12:28:48;;;;;;;8.48;4.70;;;15.60;81.20;;;;;;7576824;19;20010;-69
2023/04/30 12:31:21;;;;;;;7.68;4.68;;;15.70;79.60;;;;;;7600293;19;20359;-69
2023/04/30 12:33:55;;;;;;;6.03;4.47;;;15.80;79.50;;;;;;7596831;19;20027;-69
2023/04/30 12:36:32;;;;;;;6.07;4.55;;;15.80;79.50;;;;;;7576745;19;20011;-70
2023/04/30 12:39:06;;;;;;;7.00;4.07;;;15.90;79.80;;;;;;7583514;19;20014;-70
2023/04/30 12:41:41;;;;;;;5.78;4.63;;;16.20;80.30;;;;;;7584094;19;20055;-68
2023/04/30 12:44:16;;;;;;;5.80;4.00;;;16.50;77.30;;;;;;7604832;19;20108;-70
2023/04/30 12:46:54;;;;;;;5.30;4.03;;;16.80;76.90;;;;;;7600945;19;20582;-70
2023/04/30 12:49:29;;;;;;;5.18;4.20;;;17.50;76.70;;;;;;7601419;19;20422;-69
2023/04/30 12:52:07;;;;;;;6.93;4.07;;;17.90;71.40;;;;;;7594403;19;20021;-70
2023/04/30 12:54:40;;;;;;;4.65;4.13;;;18.20;70.70;;;;;;7600144;19;20019;-69
2023/04/30 12:57:13;;;;;;;4.80;3.42;;;18.20;69.50;;;;;;7590113;19;20561;-69
2023/04/30 12:59:51;;;;;;;5.57;3.55;;;18.40;69.80;;;;;;7594669;19;22553;-69
2023/04/30 13:02:26;;;;;;;5.93;4.25;;;18.60;68.20;;;;;;7604440;19;20025;-71
2023/04/30 13:04:59;;;;;;;17.98;4.50;;;18.70;67.50;;;;;;7598430;19;20015;-69
2023/04/30 13:07:39;;;;;;;7.95;4.57;;;18.70;67.00;;;;;;7600093;19;20014;-71
2023/04/30 13:10:12;;;;;;;5.10;4.10;;;18.30;66.90;;;;;;7600182;19;20015;-70
2023/04/30 13:12:44;;;;;;;6.70;4.50;;;18.20;69.10;;;;;;7598069;19;20026;-70
2023/04/30 13:15:17;;;;;;;4.88;4.32;;;17.90;68.40;;;;;;7606711;19;20030;-70
2023/04/30 13:17:50;;;;;;;8.07;4.20;;;17.90;70.90;;;;;;7594655;19;20022;-68